createdAt,value
2019-05-17T00:01:53.867Z,8.46
2019-05-17T00:04:26.859Z,8.41
2019-05-17T00:06:57.743Z,8.55
2019-05-17T00:09:29.787Z,8.68
2019-05-17T00:12:00.913Z,8.52
2019-05-17T00:14:32.019Z,8.64
2019-05-17T00:17:03.110Z,8.61
2019-05-17T00:19:34.177Z,8.46
2019-05-17T00:22:07.384Z,8.37
2019-05-17T00:24:38.146Z,8.49
2019-05-17T00:27:09.499Z,8.30
2019-05-17T00:29:40.603Z,8.22
2019-05-17T00:32:11.626Z,8.31
2019-05-17T00:34:42.628Z,7.95
2019-05-17T00:37:13.766Z,8.26
2019-05-17T00:39:47.015Z,8.21
2019-05-17T00:42:17.646Z,8.23
2019-05-17T00:44:48.646Z,8.24
2019-05-17T00:47:19.706Z,8.22
2019-05-17T00:49:50.819Z,8.35
2019-05-17T00:52:21.869Z,8.43
2019-05-17T00:54:52.838Z,8.43
2019-05-17T00:57:23.859Z,8.05
2019-05-17T00:59:56.537Z,8.25
2019-05-17T01:02:27.688Z,8.35
2019-05-17T01:04:59.868Z,8.33
2019-05-17T01:07:32.046Z,8.24
2019-05-17T01:10:03.152Z,8.23
2019-05-17T01:12:36.451Z,8.08
2019-05-17T01:15:08.144Z,7.85
2019-05-17T01:17:39.429Z,8.09
2019-05-17T01:20:11.438Z,8.17
2019-05-17T01:22:42.562Z,8.20
2019-05-17T01:25:13.740Z,8.22
2019-05-17T01:27:47.211Z,8.15
2019-05-17T01:30:18.388Z,8.15
2019-05-17T01:32:49.385Z,8.12
2019-05-17T01:35:20.512Z,8.00
2019-05-17T01:37:51.505Z,8.03
2019-05-17T01:40:22.559Z,8.02
2019-05-17T01:42:53.635Z,7.81
2019-05-17T01:45:26.809Z,7.92
2019-05-17T01:47:57.511Z,7.75
2019-05-17T01:50:28.560Z,7.77
2019-05-17T01:52:59.843Z,7.70
2019-05-17T01:55:30.897Z,7.57
2019-05-17T01:58:01.988Z,7.11
2019-05-17T02:00:33.071Z,7.19
2019-05-17T02:03:06.790Z,7.19
2019-05-17T02:05:37.592Z,7.26
2019-05-17T02:08:09.870Z,7.05
2019-05-17T02:10:40.972Z,7.39
2019-05-17T02:13:11.954Z,7.27
2019-05-17T02:15:43.261Z,7.20
2019-05-17T02:18:14.265Z,7.27
2019-05-17T02:20:46.456Z,7.40
2019-05-17T02:23:17.660Z,7.37
2019-05-17T02:25:48.810Z,7.35
2019-05-17T02:28:21.393Z,7.60
2019-05-17T02:30:53.107Z,7.44
2019-05-17T02:33:25.138Z,7.52
2019-05-17T02:35:56.161Z,7.41
2019-05-17T02:38:27.159Z,7.29
2019-05-17T02:40:58.214Z,7.00
2019-05-17T02:43:33.108Z,6.96
2019-05-17T02:46:03.816Z,6.96
2019-05-17T02:48:34.835Z,7.11
2019-05-17T02:51:05.960Z,7.15
2019-05-17T02:53:36.979Z,7.28
2019-05-17T02:56:08.042Z,7.25
2019-05-17T02:58:39.114Z,7.24
2019-05-17T03:01:12.679Z,6.99
2019-05-17T03:03:43.696Z,7.20
2019-05-17T03:06:14.937Z,7.16
2019-05-17T03:08:45.928Z,7.26
2019-05-17T03:11:17.008Z,7.12
2019-05-17T03:13:48.170Z,7.07
2019-05-17T03:16:19.215Z,7.11
2019-05-17T03:18:53.010Z,6.99
2019-05-17T03:21:23.880Z,7.09
2019-05-17T03:23:54.877Z,7.25
2019-05-17T03:26:25.891Z,7.05
2019-05-17T03:28:56.898Z,7.08
2019-05-17T03:31:34.502Z,7.17
2019-05-17T03:34:06.810Z,6.94
2019-05-17T03:36:36.329Z,6.94
2019-05-17T03:39:07.792Z,6.91
2019-05-17T03:41:38.804Z,6.61
2019-05-17T03:44:13.269Z,6.16
2019-05-17T03:46:42.759Z,6.52
2019-05-17T03:49:13.914Z,6.44
2019-05-17T03:51:45.048Z,6.08
2019-05-17T03:54:16.051Z,6.54
2019-05-17T03:56:47.485Z,6.46
2019-05-17T03:59:18.493Z,6.60
2019-05-17T04:01:52.491Z,6.56
2019-05-17T04:04:23.001Z,6.94
2019-05-17T04:06:54.338Z,6.62
2019-05-17T04:09:25.318Z,6.98
2019-05-17T04:11:57.470Z,6.96
2019-05-17T04:14:28.572Z,6.82
2019-05-17T04:17:02.863Z,6.56
2019-05-17T04:19:33.705Z,6.44
2019-05-17T04:22:05.189Z,6.10
2019-05-17T04:24:36.331Z,6.46
2019-05-17T04:27:07.386Z,6.41
2019-05-17T04:29:38.751Z,6.19
2019-05-17T04:32:12.669Z,6.60
2019-05-17T04:34:43.733Z,6.85
2019-05-17T04:37:15.018Z,6.57
2019-05-17T04:39:46.113Z,6.09
2019-05-17T04:42:17.284Z,6.60
2019-05-17T04:44:48.297Z,6.39
2019-05-17T04:47:22.700Z,6.83
2019-05-17T04:49:53.681Z,7.28
2019-05-17T04:52:25.109Z,7.14
2019-05-17T04:54:56.163Z,7.27
2019-05-17T04:57:27.144Z,7.01
2019-05-17T04:59:59.577Z,7.47
2019-05-17T05:02:33.096Z,6.82
2019-05-17T05:05:03.733Z,7.29
2019-05-17T05:07:34.894Z,7.05
2019-05-17T05:10:06.791Z,7.40
2019-05-17T05:12:37.751Z,6.87
2019-05-17T05:15:12.053Z,7.25
2019-05-17T05:17:42.957Z,7.33
2019-05-17T05:20:14.271Z,7.83
2019-05-17T05:22:45.353Z,7.10
2019-05-17T05:25:16.425Z,7.47
2019-05-17T05:27:47.406Z,6.89
2019-05-17T05:30:18.541Z,7.26
2019-05-17T05:32:49.524Z,7.43
2019-05-17T05:35:22.456Z,8.05
2019-05-17T05:37:54.410Z,7.84
2019-05-17T05:40:25.402Z,7.99
2019-05-17T05:42:56.391Z,7.99
2019-05-17T05:45:27.816Z,7.75
2019-05-17T05:47:58.894Z,8.03
2019-05-17T05:50:32.297Z,8.25
2019-05-17T05:53:02.694Z,8.41
2019-05-17T05:55:33.906Z,8.15
2019-05-17T05:58:05.034Z,8.42
2019-05-17T06:00:36.264Z,8.46
2019-05-17T06:03:07.334Z,8.50
2019-05-17T06:05:38.720Z,8.25
2019-05-17T06:08:11.953Z,8.39
2019-05-17T06:10:43.029Z,8.96
2019-05-17T06:13:14.329Z,8.65
2019-05-17T06:15:45.457Z,8.39
2019-05-17T06:18:16.558Z,8.65
2019-05-17T06:20:47.715Z,8.45
2019-05-17T06:23:18.776Z,8.70
2019-05-17T06:25:52.173Z,8.82
2019-05-17T06:28:23.757Z,9.23
2019-05-17T06:30:54.845Z,8.65
2019-05-17T06:33:30.921Z,8.49
2019-05-17T06:35:58.782Z,9.32
2019-05-17T06:38:29.895Z,9.91
2019-05-17T06:41:01.739Z,10.49
2019-05-17T06:43:32.797Z,10.12
2019-05-17T06:46:04.076Z,10.83
2019-05-17T06:48:35.199Z,10.67
2019-05-17T06:51:06.389Z,10.75
2019-05-17T06:53:37.391Z,11.25
2019-05-17T06:56:08.624Z,11.60
2019-05-17T06:58:39.762Z,12.41
2019-05-17T07:01:10.909Z,13.91
2019-05-17T07:03:41.913Z,14.41
2019-05-17T07:06:14.826Z,14.92
2019-05-17T07:08:45.839Z,15.31
2019-05-17T07:11:17.000Z,16.43
2019-05-17T07:13:49.581Z,16.73
2019-05-17T07:16:20.837Z,18.28
2019-05-17T07:18:51.926Z,18.10
2019-05-17T07:21:23.052Z,18.30
2019-05-17T07:23:54.164Z,18.79
2019-05-17T07:26:25.499Z,18.78
2019-05-17T07:28:56.678Z,19.53
2019-05-17T07:31:29.772Z,19.80
2019-05-17T07:34:00.604Z,20.76
2019-05-17T07:36:31.646Z,20.77
2019-05-17T07:39:02.958Z,20.10
2019-05-17T07:41:34.263Z,20.27
2019-05-17T07:44:05.434Z,22.00
2019-05-17T07:46:36.580Z,20.94
2019-05-17T07:49:07.619Z,22.06
2019-05-17T07:51:39.623Z,22.09
2019-05-17T07:54:10.815Z,20.90
2019-05-17T07:56:42.905Z,19.17
2019-05-17T07:59:14.095Z,19.02
2019-05-17T08:01:45.116Z,19.24
2019-05-17T08:04:16.213Z,19.82
2019-05-17T08:06:47.292Z,19.20
2019-05-17T08:09:20.353Z,20.99
2019-05-17T08:11:51.146Z,21.20
2019-05-17T08:14:29.873Z,21.41
2019-05-17T08:16:55.331Z,20.07
2019-05-17T08:19:26.476Z,20.34
2019-05-17T08:21:59.574Z,19.83
2019-05-17T08:24:30.429Z,18.98
2019-05-17T08:27:01.634Z,18.96
2019-05-17T08:29:32.679Z,18.84
2019-05-17T08:32:03.839Z,18.76
2019-05-17T08:34:34.940Z,18.74
2019-05-17T08:37:06.113Z,18.76
2019-05-17T08:39:39.800Z,17.68
2019-05-17T08:42:09.977Z,17.76
2019-05-17T08:44:42.332Z,17.76
2019-05-17T08:47:14.378Z,17.90
2019-05-17T08:49:45.457Z,16.86
2019-05-17T08:52:16.561Z,17.32
2019-05-17T08:54:49.597Z,17.54
2019-05-17T08:57:20.896Z,17.53
2019-05-17T08:59:51.939Z,17.31
2019-05-17T09:02:23.011Z,17.24
2019-05-17T09:04:54.072Z,17.86
2019-05-17T09:07:25.101Z,18.32
2019-05-17T09:09:56.183Z,17.43
2019-05-17T09:12:29.858Z,17.92
2019-05-17T09:15:00.579Z,17.57
2019-05-17T09:17:31.852Z,17.73
2019-05-17T09:20:02.874Z,18.52
2019-05-17T09:22:33.888Z,18.59
2019-05-17T09:25:06.864Z,17.84
2019-05-17T09:27:39.755Z,17.71
2019-05-17T09:30:11.922Z,18.29
2019-05-17T09:32:43.024Z,18.89
2019-05-17T09:35:14.200Z,18.27
2019-05-17T09:37:45.335Z,17.59
2019-05-17T09:40:16.572Z,17.01
2019-05-17T09:42:49.761Z,16.73
2019-05-17T09:45:20.877Z,17.47
2019-05-17T09:47:51.911Z,17.35
2019-05-17T09:50:23.081Z,17.94
2019-05-17T09:52:54.148Z,17.72
2019-05-17T09:55:25.320Z,18.22
2019-05-17T09:57:56.352Z,17.58
2019-05-17T10:00:29.690Z,18.12
2019-05-17T10:03:00.521Z,18.00
2019-05-17T10:05:31.684Z,18.22
2019-05-17T10:08:02.736Z,17.60
2019-05-17T10:10:33.814Z,18.67
2019-05-17T10:13:05.026Z,18.55
2019-05-17T10:15:36.091Z,18.25
2019-05-17T10:18:07.212Z,18.23
2019-05-17T10:20:39.910Z,18.29
2019-05-17T10:23:11.466Z,18.81
2019-05-17T10:25:42.531Z,18.63
2019-05-17T10:28:13.634Z,18.89
2019-05-17T10:30:45.726Z,18.99
2019-05-17T10:33:16.770Z,18.54
2019-05-17T10:35:49.663Z,18.60
2019-05-17T10:38:20.691Z,18.39
2019-05-17T10:40:51.702Z,18.48
2019-05-17T10:43:22.746Z,19.05
2019-05-17T10:45:53.746Z,19.22
2019-05-17T10:48:24.847Z,18.20
2019-05-17T10:50:55.841Z,18.70
2019-05-17T10:53:29.574Z,18.79
2019-05-17T10:56:00.792Z,19.03
2019-05-17T10:58:32.137Z,18.45
2019-05-17T11:01:03.305Z,18.93
2019-05-17T11:03:34.598Z,19.01
2019-05-17T11:06:05.856Z,19.23
2019-05-17T11:08:37.381Z,18.72
2019-05-17T11:11:10.220Z,18.88
2019-05-17T11:13:41.478Z,18.89
2019-05-17T11:16:12.557Z,18.61
2019-05-17T11:18:43.720Z,18.57
2019-05-17T11:21:14.965Z,18.80
2019-05-17T11:23:46.096Z,19.04
2019-05-17T11:26:17.272Z,19.22
2019-05-17T11:28:49.618Z,19.37
2019-05-17T11:31:20.780Z,18.88
2019-05-17T11:33:51.834Z,18.61
2019-05-17T11:36:22.938Z,18.30
2019-05-17T11:38:54.044Z,18.82
2019-05-17T11:41:25.268Z,19.24
2019-05-17T11:43:56.285Z,19.36
2019-05-17T11:46:35.812Z,19.05
2019-05-17T11:49:00.190Z,19.36
2019-05-17T11:51:31.196Z,19.50
2019-05-17T11:54:02.300Z,19.30
2019-05-17T11:56:33.380Z,18.92
2019-05-17T11:59:04.662Z,18.99
2019-05-17T12:01:35.776Z,19.02
2019-05-17T12:04:06.986Z,19.02
2019-05-17T12:06:38.037Z,19.50
2019-05-17T12:09:09.535Z,19.98
2019-05-17T12:11:40.531Z,19.30
2019-05-17T12:14:11.542Z,19.23
2019-05-17T12:16:42.536Z,19.03
2019-05-17T12:19:13.580Z,19.58
2019-05-17T12:21:44.604Z,19.94
2019-05-17T12:24:15.731Z,19.94
2019-05-17T12:26:47.558Z,19.83
2019-05-17T12:29:18.735Z,20.45
2019-05-17T12:31:49.957Z,19.48
2019-05-17T12:34:21.057Z,19.27
2019-05-17T12:36:53.122Z,19.27
2019-05-17T12:39:25.198Z,19.64
2019-05-17T12:41:56.375Z,19.66
2019-05-17T12:44:27.435Z,19.92
2019-05-17T12:46:58.444Z,20.25
2019-05-17T12:49:29.549Z,20.23
2019-05-17T12:52:00.581Z,19.98
2019-05-17T12:54:31.640Z,20.44
2019-05-17T12:57:04.773Z,20.46
2019-05-17T12:59:35.569Z,20.88
2019-05-17T13:02:06.690Z,20.97
2019-05-17T13:04:39.573Z,20.36
2019-05-17T13:07:10.637Z,19.91
2019-05-17T13:09:41.904Z,19.96
2019-05-17T13:12:12.909Z,19.79
2019-05-17T13:14:44.115Z,20.24
2019-05-17T13:17:15.117Z,19.85
2019-05-17T13:19:46.641Z,20.16
2019-05-17T13:22:17.781Z,20.19
2019-05-17T13:24:48.900Z,19.87
2019-05-17T13:27:19.991Z,19.93
2019-05-17T13:29:51.053Z,19.64
2019-05-17T13:32:22.043Z,19.78
2019-05-17T13:34:53.033Z,19.30
2019-05-17T13:37:24.045Z,19.37
2019-05-17T13:39:55.085Z,19.46
2019-05-17T13:42:26.112Z,19.61
2019-05-17T13:44:57.251Z,19.61
2019-05-17T13:47:28.231Z,19.92
2019-05-17T13:49:59.276Z,19.68
2019-05-17T13:52:31.381Z,19.64
2019-05-17T13:55:02.395Z,19.78
2019-05-17T13:57:33.758Z,19.62
2019-05-17T14:00:05.604Z,19.82
2019-05-17T14:02:37.275Z,19.64
2019-05-17T14:05:09.967Z,19.61
2019-05-17T14:07:40.957Z,19.75
2019-05-17T14:10:26.230Z,19.41
2019-05-17T14:12:45.798Z,19.68
2019-05-17T14:15:17.684Z,19.69
2019-05-17T14:17:48.785Z,19.67
2019-05-17T14:20:20.151Z,19.73
2019-05-17T14:22:51.361Z,19.43
2019-05-17T14:25:22.531Z,19.50
2019-05-17T14:27:54.040Z,19.32
2019-05-17T14:30:25.220Z,19.20
2019-05-17T14:32:56.283Z,19.46
2019-05-17T14:35:27.630Z,19.18
2019-05-17T14:37:59.761Z,19.01
2019-05-17T14:41:04.301Z,19.14
2019-05-17T14:43:03.715Z,19.06
2019-05-17T14:45:34.828Z,19.22
2019-05-17T14:48:05.953Z,19.12
2019-05-17T14:50:36.976Z,19.22
2019-05-17T14:53:08.097Z,18.96
2019-05-17T14:55:39.131Z,18.93
2019-05-17T14:58:10.231Z,19.04
2019-05-17T15:00:41.247Z,19.18
2019-05-17T15:03:12.249Z,19.00
2019-05-17T15:05:43.269Z,18.80
2019-05-17T15:08:14.322Z,18.81
2019-05-17T15:10:45.466Z,18.76
2019-05-17T15:13:16.541Z,18.89
2019-05-17T15:15:47.891Z,18.85
2019-05-17T15:18:19.082Z,18.83
2019-05-17T15:20:50.097Z,18.68
2019-05-17T15:23:21.178Z,18.58
2019-05-17T15:25:52.455Z,18.79
2019-05-17T15:28:23.476Z,18.82
2019-05-17T15:30:54.665Z,18.82
2019-05-17T15:33:25.660Z,18.67
2019-05-17T15:35:56.869Z,18.60
2019-05-17T15:38:27.911Z,18.81
2019-05-17T15:40:59.053Z,18.70
2019-05-17T15:43:30.108Z,18.81
2019-05-17T15:46:01.279Z,18.78
2019-05-17T15:48:32.277Z,18.93
2019-05-17T15:51:03.759Z,18.79
2019-05-17T15:53:35.120Z,18.74
2019-05-17T15:56:06.324Z,18.65
2019-05-17T15:58:37.383Z,18.58
2019-05-17T16:01:08.545Z,18.65
2019-05-17T16:03:39.701Z,18.65
2019-05-17T16:06:10.895Z,18.67
2019-05-17T16:08:41.978Z,18.90
2019-05-17T16:11:13.113Z,18.71
2019-05-17T16:13:44.230Z,18.84
2019-05-17T16:16:15.489Z,18.78
2019-05-17T16:18:46.470Z,18.62
2019-05-17T16:21:17.505Z,18.88
2019-05-17T16:23:48.528Z,18.65
2019-05-17T16:26:20.629Z,18.82
2019-05-17T16:28:51.681Z,18.85
2019-05-17T16:31:22.859Z,18.90
2019-05-17T16:33:53.854Z,18.75
2019-05-17T16:36:24.890Z,18.65
2019-05-17T16:38:55.924Z,18.44
2019-05-17T16:41:27.042Z,18.56
2019-05-17T16:43:58.094Z,18.69
2019-05-17T16:46:29.133Z,18.74
2019-05-17T16:49:00.282Z,18.81
2019-05-17T16:51:31.395Z,19.01
2019-05-17T16:54:02.616Z,18.72
2019-05-17T16:56:33.711Z,18.57
2019-05-17T16:59:04.908Z,18.51
2019-05-17T17:01:36.112Z,18.25
2019-05-17T17:04:07.534Z,18.38
2019-05-17T17:06:39.116Z,18.51
2019-05-17T17:09:10.367Z,18.46
2019-05-17T17:11:41.550Z,18.48
2019-05-17T17:14:12.654Z,18.50
2019-05-17T17:16:43.814Z,18.43
2019-05-17T17:19:14.842Z,18.57
2019-05-17T17:21:46.007Z,18.62
2019-05-17T17:24:16.998Z,18.62
2019-05-17T17:26:48.166Z,18.57
2019-05-17T17:29:19.677Z,18.42
2019-05-17T17:31:50.746Z,18.08
2019-05-17T17:34:22.913Z,18.05
2019-05-17T17:36:54.091Z,17.95
2019-05-17T17:39:25.199Z,17.92
2019-05-17T17:41:56.236Z,17.96
2019-05-17T17:44:27.302Z,18.03
2019-05-17T17:46:58.338Z,17.97
2019-05-17T17:49:29.405Z,18.04
2019-05-17T17:52:00.587Z,17.89
2019-05-17T17:54:31.943Z,17.77
2019-05-17T17:57:03.039Z,17.82
2019-05-17T17:59:34.211Z,17.68
2019-05-17T18:02:05.433Z,17.65
2019-05-17T18:04:36.498Z,17.59
2019-05-17T18:07:07.697Z,17.28
2019-05-17T18:09:38.781Z,17.44
2019-05-17T18:12:09.909Z,17.41
2019-05-17T18:14:40.966Z,17.38
2019-05-17T18:17:12.001Z,17.38
2019-05-17T18:19:43.092Z,17.59
2019-05-17T18:22:14.286Z,17.51
2019-05-17T18:24:45.446Z,17.64
2019-05-17T18:27:16.743Z,17.64
2019-05-17T18:29:48.895Z,17.70
2019-05-17T18:32:20.018Z,17.26
2019-05-17T18:34:51.212Z,17.44
2019-05-17T18:37:22.363Z,17.25
2019-05-17T18:39:53.364Z,17.48
2019-05-17T18:42:24.485Z,17.17
2019-05-17T18:44:55.615Z,17.26
2019-05-17T18:47:26.723Z,17.00
2019-05-17T18:49:57.779Z,16.95
2019-05-17T18:52:29.058Z,17.02
2019-05-17T18:55:00.051Z,17.11
2019-05-17T18:57:31.486Z,16.96
2019-05-17T19:00:02.511Z,16.86
2019-05-17T19:02:34.142Z,16.78
2019-05-17T19:05:06.082Z,16.70
2019-05-17T19:07:37.115Z,16.72
2019-05-17T19:10:10.741Z,16.82
2019-05-17T19:12:41.787Z,16.56
2019-05-17T19:15:13.503Z,16.69
2019-05-17T19:17:44.583Z,16.89
2019-05-17T19:20:16.122Z,16.74
2019-05-17T19:22:47.219Z,16.72
2019-05-17T19:25:18.755Z,16.66
2019-05-17T19:27:50.009Z,16.52
2019-05-17T19:30:21.925Z,16.36
2019-05-17T19:32:52.950Z,16.52
2019-05-17T19:35:25.204Z,16.23
2019-05-17T19:37:56.240Z,16.28
2019-05-17T19:40:27.393Z,16.19
2019-05-17T19:42:58.472Z,16.13
2019-05-17T19:45:29.717Z,16.05
2019-05-17T19:48:01.101Z,16.03
2019-05-17T19:50:32.202Z,15.99
2019-05-17T19:53:03.391Z,16.07
2019-05-17T19:55:34.478Z,15.91
2019-05-17T19:58:05.700Z,15.66
2019-05-17T20:00:36.990Z,15.63
2019-05-17T20:03:08.273Z,15.56
2019-05-17T20:05:39.290Z,15.74
2019-05-17T20:08:10.307Z,15.71
2019-05-17T20:10:41.307Z,15.67
2019-05-17T20:13:12.303Z,15.73
2019-05-17T20:15:43.470Z,15.39
2019-05-17T20:18:14.586Z,15.44
2019-05-17T20:20:45.614Z,15.47
2019-05-17T20:23:16.718Z,15.39
2019-05-17T20:25:47.798Z,15.44
2019-05-17T20:28:19.100Z,15.33
2019-05-17T20:30:50.107Z,15.44
2019-05-17T20:33:21.470Z,15.57
2019-05-17T20:35:52.793Z,15.20
2019-05-17T20:38:25.231Z,15.29
2019-05-17T20:40:56.230Z,15.45
2019-05-17T20:43:27.360Z,15.28
2019-05-17T20:45:58.445Z,15.23
2019-05-17T20:48:29.418Z,14.95
2019-05-17T20:51:00.498Z,14.97
2019-05-17T20:53:31.889Z,14.71
2019-05-17T20:56:02.981Z,14.55
2019-05-17T20:58:34.023Z,14.57
2019-05-17T21:01:05.303Z,14.81
2019-05-17T21:03:36.481Z,14.81
2019-05-17T21:06:07.584Z,14.72
2019-05-17T21:08:46.116Z,14.49
2019-05-17T21:11:11.315Z,14.59
2019-05-17T21:13:42.433Z,14.58
2019-05-17T21:16:13.447Z,14.64
2019-05-17T21:18:44.860Z,14.60
2019-05-17T21:21:15.930Z,14.42
2019-05-17T21:23:46.950Z,14.08
2019-05-17T21:26:18.077Z,14.00
2019-05-17T21:28:49.228Z,13.90
2019-05-17T21:31:20.317Z,14.00
2019-05-17T21:33:51.333Z,13.99
2019-05-17T21:36:22.517Z,14.03
2019-05-17T21:38:53.655Z,13.97
2019-05-17T21:41:24.692Z,13.91
2019-05-17T21:43:55.738Z,13.93
2019-05-17T21:46:26.899Z,13.94
2019-05-17T21:48:57.976Z,13.90
2019-05-17T21:51:28.981Z,13.84
2019-05-17T21:54:00.194Z,13.85
2019-05-17T21:56:31.271Z,13.69
2019-05-17T21:59:02.446Z,13.74
2019-05-17T22:01:35.212Z,13.75
2019-05-17T22:04:06.343Z,13.77
2019-05-17T22:06:38.487Z,13.75
2019-05-17T22:09:09.987Z,13.63
2019-05-17T22:11:44.614Z,13.45
2019-05-17T22:14:15.496Z,13.37
2019-05-17T22:16:46.665Z,13.52
2019-05-17T22:19:17.759Z,13.39
2019-05-17T22:21:48.749Z,13.40
2019-05-17T22:24:19.779Z,13.34
2019-05-17T22:26:50.884Z,13.54
2019-05-17T22:29:21.954Z,13.24
2019-05-17T22:31:53.177Z,13.22
2019-05-17T22:34:24.318Z,12.88
2019-05-17T22:36:55.413Z,12.89
2019-05-17T22:39:26.521Z,13.01
2019-05-17T22:41:57.524Z,12.92
2019-05-17T22:44:28.620Z,12.74
2019-05-17T22:46:59.677Z,12.73
2019-05-17T22:49:31.876Z,12.75
2019-05-17T22:52:03.092Z,12.27
2019-05-17T22:54:34.131Z,12.47
2019-05-17T22:57:05.161Z,12.59
2019-05-17T22:59:36.238Z,12.47
2019-05-17T23:02:07.443Z,12.46
2019-05-17T23:04:38.476Z,12.65
2019-05-17T23:07:09.461Z,12.49
2019-05-17T23:09:40.504Z,12.47
2019-05-17T23:12:11.524Z,12.51
2019-05-17T23:14:42.652Z,12.53
2019-05-17T23:17:13.658Z,12.54
2019-05-17T23:19:44.765Z,12.39
2019-05-17T23:22:15.892Z,12.37
2019-05-17T23:24:47.055Z,12.23
2019-05-17T23:27:19.224Z,12.14
2019-05-17T23:29:50.761Z,12.28
2019-05-17T23:32:21.957Z,12.22
2019-05-17T23:34:53.004Z,12.34
2019-05-17T23:37:24.081Z,12.14
2019-05-17T23:39:55.217Z,12.09
2019-05-17T23:42:26.273Z,12.11
2019-05-17T23:44:57.388Z,12.06
2019-05-17T23:47:28.476Z,11.96
2019-05-17T23:49:59.527Z,11.96
2019-05-17T23:52:30.529Z,12.02
2019-05-17T23:55:01.590Z,12.01
2019-05-17T23:57:32.680Z,11.89
